Time;durP1;ratioP1;P1;durP2;ratioP2;P2;SDS_P1;SDS_P2;PMS_P1;PMS_P2;Temp;Humidity;BMP_temperature;BMP_pressure;BME280_temperature;BME280_humidity;BME280_pressure;Samples;Min_cycle;Max_cycle;Signal;HPM_P1;HPM_P2
2023/01/10 00:01:34;;;;;;;0.30;0.30;;;;;;;;;;5036483;28;20049;-62
2023/01/10 00:04:02;;;;;;;0.20;0.20;;;;;;;;;;5039737;28;20413;-63
2023/01/10 00:06:30;;;;;;;2.20;0.63;;;;;;;;;;5063991;28;20085;-63
2023/01/10 00:08:58;;;;;;;0.98;0.60;;;;;;;;;;5037044;28;20053;-64
2023/01/10 00:14:14;;;;;;;0.25;0.25;;;;;;;;;;5046616;28;20041;-63
2023/01/10 00:16:42;;;;;;;0.20;0.20;;;;;;;;;;5044570;28;20063;-62
2023/01/10 00:19:10;;;;;;;0.38;0.38;;;;;;;;;;5046946;28;20060;-63
2023/01/10 00:21:39;;;;;;;0.40;0.40;;;;;;;;;;5049355;28;20060;-63
2023/01/10 00:24:16;;;;;;;0.32;0.30;;;;;;;;;;5043373;28;20053;-63
2023/01/10 00:26:49;;;;;;;0.63;0.30;;;;;;;;;;5050394;28;20049;-63
2023/01/10 00:29:18;;;;;;;0.17;0.17;;;;;;;;;;5040230;28;20044;-63
2023/01/10 00:31:47;;;;;;;0.60;0.60;;;;;;;;;;5043059;28;20576;-63
2023/01/10 00:34:15;;;;;;;0.50;0.35;;;;;;;;;;5047256;28;20133;-63
2023/01/10 00:36:44;;;;;;;0.20;0.20;;;;;;;;;;5044314;28;20049;-63
2023/01/10 00:39:13;;;;;;;0.30;0.30;;;;;;;;;;5043583;28;20099;-63
2023/01/10 00:44:28;;;;;;;0.52;0.30;;;;;;;;;;5040673;28;20053;-64
2023/01/10 00:46:57;;;;;;;0.20;0.13;;;;;;;;;;5047739;28;20048;-63
2023/01/10 00:49:25;;;;;;;0.90;0.32;;;;;;;;;;5043432;28;20056;-63
2023/01/10 00:51:56;;;;;;;0.55;0.52;;;;;;;;;;5044180;28;20045;-62
2023/01/10 00:54:25;;;;;;;0.50;0.30;;;;;;;;;;5038197;28;20379;-62
2023/01/10 00:56:53;;;;;;;0.25;0.25;;;;;;;;;;5041057;28;20412;-63
2023/01/10 00:59:21;;;;;;;0.20;0.20;;;;;;;;;;5041716;28;20048;-63
2023/01/10 01:01:51;;;;;;;1.33;0.43;;;;;;;;;;5041183;28;20061;-63
2023/01/10 01:04:20;;;;;;;0.25;0.25;;;;;;;;;;5042080;28;20453;-63
2023/01/10 01:06:49;;;;;;;0.20;0.20;;;;;;;;;;5053019;28;20045;-63
2023/01/10 01:09:17;;;;;;;5.82;1.85;;;;;;;;;;5048132;28;20053;-63
2023/01/10 01:11:46;;;;;;;1.13;0.52;;;;;;;;;;5044120;28;20490;-63
2023/01/10 01:14:14;;;;;;;0.25;0.25;;;;;;;;;;5046164;28;20042;-63
2023/01/10 01:16:42;;;;;;;0.40;0.40;;;;;;;;;;5043813;28;20050;-63
2023/01/10 01:19:12;;;;;;;1.48;0.65;;;;;;;;;;5047741;28;20044;-63
2023/01/10 01:21:40;;;;;;;0.47;0.47;;;;;;;;;;5043310;28;20060;-63
2023/01/10 01:24:09;;;;;;;0.15;0.15;;;;;;;;;;5050920;28;20052;-63
2023/01/10 01:26:38;;;;;;;0.50;0.50;;;;;;;;;;5052389;28;20470;-63
2023/01/10 01:29:06;;;;;;;0.30;0.30;;;;;;;;;;5051809;28;20551;-63
2023/01/10 01:31:35;;;;;;;2.53;0.52;;;;;;;;;;5045535;28;20045;-63
2023/01/10 01:34:03;;;;;;;0.25;0.22;;;;;;;;;;5045526;28;20433;-63
2023/01/10 01:36:33;;;;;;;0.20;0.20;;;;;;;;;;5046937;28;20049;-63
2023/01/10 01:39:02;;;;;;;0.40;0.40;;;;;;;;;;5057682;28;20048;-63
2023/01/10 01:44:25;;;;;;;0.90;0.30;;;;;;;;;;5015117;28;20088;-63
2023/01/10 01:46:58;;;;;;;0.50;0.50;;;;;;;;;;5048215;28;20057;-63
2023/01/10 01:49:26;;;;;;;0.17;0.17;;;;;;;;;;5042557;28;20046;-63
2023/01/10 01:51:58;;;;;;;1.73;0.60;;;;;;;;;;5049021;28;20045;-63
2023/01/10 01:54:27;;;;;;;7.53;0.88;;;;;;;;;;5050428;28;20061;-63
2023/01/10 01:56:57;;;;;;;0.30;0.30;;;;;;;;;;5049614;28;20045;-63
2023/01/10 01:59:29;;;;;;;0.50;0.38;;;;;;;;;;5050779;28;20049;-64
2023/01/10 02:02:00;;;;;;;0.30;0.30;;;;;;;;;;5040237;28;20450;-63
2023/01/10 02:04:30;;;;;;;0.32;0.32;;;;;;;;;;5047005;28;20057;-63
2023/01/10 02:07:00;;;;;;;0.35;0.30;;;;;;;;;;5050699;28;20055;-63
2023/01/10 02:09:31;;;;;;;0.20;0.20;;;;;;;;;;5049347;28;20056;-64
2023/01/10 02:11:59;;;;;;;0.43;0.25;;;;;;;;;;5051235;28;20389;-63
2023/01/10 02:14:27;;;;;;;0.45;0.40;;;;;;;;;;5050247;28;20060;-65
2023/01/10 02:16:56;;;;;;;0.55;0.40;;;;;;;;;;5049735;28;20048;-63
2023/01/10 02:19:29;;;;;;;0.22;0.20;;;;;;;;;;5040585;28;20044;-62
2023/01/10 02:22:15;;;;;;;0.10;0.10;;;;;;;;;;5049488;28;20055;-64
2023/01/10 02:25:01;;;;;;;0.20;0.20;;;;;;;;;;5036886;28;20497;-63
2023/01/10 02:27:36;;;;;;;0.10;0.10;;;;;;;;;;5038342;28;20140;-63
2023/01/10 02:30:19;;;;;;;0.30;0.30;;;;;;;;;;5049834;28;20056;-63
2023/01/10 02:32:49;;;;;;;0.40;0.40;;;;;;;;;;5035316;28;20449;-62
2023/01/10 02:35:50;;;;;;;0.20;0.20;;;;;;;;;;5047518;28;20049;-63
2023/01/10 02:38:24;;;;;;;2.13;1.10;;;;;;;;;;5045824;28;20049;-63
2023/01/10 02:40:54;;;;;;;0.10;0.10;;;;;;;;;;5046186;28;20041;-64
2023/01/10 02:43:24;;;;;;;1.08;0.57;;;;;;;;;;5050579;28;21026;-63
2023/01/10 02:45:55;;;;;;;0.50;0.50;;;;;;;;;;5043888;28;20049;-63
2023/01/10 02:48:25;;;;;;;0.28;0.28;;;;;;;;;;5041525;28;20051;-64
2023/01/10 02:50:56;;;;;;;0.63;0.30;;;;;;;;;;5049652;28;20057;-64
2023/01/10 02:53:26;;;;;;;0.10;0.10;;;;;;;;;;5048352;28;20052;-62
2023/01/10 02:56:12;;;;;;;0.65;0.35;;;;;;;;;;5043884;28;20049;-62
2023/01/10 02:58:46;;;;;;;0.40;0.40;;;;;;;;;;5035539;28;20145;-63
2023/01/10 03:01:17;;;;;;;0.32;0.25;;;;;;;;;;5046279;28;20055;-62
2023/01/10 03:03:50;;;;;;;0.35;0.35;;;;;;;;;;5041763;28;20046;-63
2023/01/10 03:06:23;;;;;;;1.98;0.50;;;;;;;;;;5050570;28;20056;-63
2023/01/10 03:08:54;;;;;;;0.22;0.22;;;;;;;;;;5048356;28;20045;-63
2023/01/10 03:11:38;;;;;;;0.40;0.40;;;;;;;;;;5051085;28;20052;-62
2023/01/10 03:14:09;;;;;;;0.50;0.27;;;;;;;;;;5035496;28;20141;-63
2023/01/10 03:16:38;;;;;;;0.63;0.63;;;;;;;;;;5050212;28;20401;-63
2023/01/10 03:19:09;;;;;;;0.73;0.30;;;;;;;;;;5048304;28;20063;-64
2023/01/10 03:21:39;;;;;;;0.17;0.17;;;;;;;;;;5048326;28;20382;-64
2023/01/10 03:24:10;;;;;;;2.63;0.52;;;;;;;;;;5054308;28;20056;-62
2023/01/10 03:26:43;;;;;;;0.10;0.10;;;;;;;;;;5049115;28;20049;-63
2023/01/10 03:29:12;;;;;;;2.30;0.32;;;;;;;;;;5044785;28;20052;-62
2023/01/10 03:31:45;;;;;;;0.98;0.73;;;;;;;;;;5049319;28;20547;-62
2023/01/10 03:34:15;;;;;;;0.28;0.17;;;;;;;;;;5040784;28;20056;-63
2023/01/10 03:36:48;;;;;;;0.30;0.30;;;;;;;;;;5048510;28;20362;-62
2023/01/10 03:39:19;;;;;;;0.47;0.47;;;;;;;;;;5049182;28;20059;-62
2023/01/10 03:41:50;;;;;;;0.17;0.17;;;;;;;;;;5045598;28;20048;-62
2023/01/10 03:47:07;;;;;;;0.77;0.40;;;;;;;;;;5039191;28;20481;-62
2023/01/10 03:49:38;;;;;;;0.10;0.10;;;;;;;;;;5055737;28;20048;-62
2023/01/10 03:52:07;;;;;;;1.60;0.22;;;;;;;;;;5046107;28;20044;-66
2023/01/10 03:54:36;;;;;;;0.20;0.20;;;;;;;;;;5049208;28;20053;-61
2023/01/10 03:57:06;;;;;;;0.20;0.20;;;;;;;;;;5040138;28;20041;-63
2023/01/10 03:59:35;;;;;;;0.50;0.50;;;;;;;;;;5043587;28;20053;-63
2023/01/10 04:02:03;;;;;;;0.35;0.20;;;;;;;;;;5046385;28;20060;-63
2023/01/10 04:04:32;;;;;;;0.15;0.15;;;;;;;;;;5037398;28;20497;-63
2023/01/10 04:07:01;;;;;;;0.30;0.30;;;;;;;;;;5042275;28;20048;-63
2023/01/10 04:09:29;;;;;;;0.20;0.20;;;;;;;;;;5050190;28;20048;-62
2023/01/10 04:11:58;;;;;;;0.30;0.20;;;;;;;;;;5043590;28;20049;-63
2023/01/10 04:14:26;;;;;;;0.20;0.20;;;;;;;;;;5048777;28;20410;-63
2023/01/10 04:16:54;;;;;;;1.45;0.52;;;;;;;;;;5043660;28;20037;-62
2023/01/10 04:19:22;;;;;;;0.30;0.30;;;;;;;;;;5047156;28;20482;-60
2023/01/10 04:21:51;;;;;;;0.20;0.20;;;;;;;;;;5043438;28;20052;-63
2023/01/10 04:24:20;;;;;;;0.20;0.20;;;;;;;;;;5050189;28;20366;-63
2023/01/10 04:26:49;;;;;;;0.28;0.28;;;;;;;;;;5041504;28;20414;-62
2023/01/10 04:29:17;;;;;;;0.20;0.20;;;;;;;;;;5048251;28;20052;-63
2023/01/10 04:31:45;;;;;;;0.10;0.10;;;;;;;;;;5043075;28;20044;-64
2023/01/10 04:34:13;;;;;;;0.75;0.38;;;;;;;;;;5044223;28;20087;-63
2023/01/10 04:36:42;;;;;;;0.17;0.17;;;;;;;;;;5043018;28;20156;-62
2023/01/10 04:39:10;;;;;;;0.47;0.47;;;;;;;;;;5053657;28;20049;-64
2023/01/10 04:41:39;;;;;;;0.25;0.25;;;;;;;;;;5046381;28;20045;-63
2023/01/10 04:44:08;;;;;;;0.45;0.45;;;;;;;;;;5051035;28;20052;-63
2023/01/10 04:46:36;;;;;;;0.20;0.20;;;;;;;;;;5051030;28;20065;-63
2023/01/10 04:49:04;;;;;;;0.20;0.20;;;;;;;;;;5046626;28;20056;-63
2023/01/10 04:51:33;;;;;;;4.15;0.40;;;;;;;;;;5043929;28;20081;-64
2023/01/10 04:54:01;;;;;;;0.22;0.22;;;;;;;;;;5052872;28;20061;-63
2023/01/10 04:56:29;;;;;;;0.85;0.35;;;;;;;;;;5052954;28;20460;-63
2023/01/10 04:58:59;;;;;;;0.20;0.20;;;;;;;;;;5043234;28;20077;-64
2023/01/10 05:01:27;;;;;;;0.50;0.15;;;;;;;;;;5044406;28;20060;-62
2023/01/10 05:03:56;;;;;;;0.50;0.50;;;;;;;;;;5044272;28;20049;-62
2023/01/10 05:06:24;;;;;;;0.63;0.40;;;;;;;;;;5051741;28;20049;-62
2023/01/10 05:08:53;;;;;;;0.38;0.38;;;;;;;;;;5042626;28;20057;-63
2023/01/10 05:11:21;;;;;;;0.45;0.40;;;;;;;;;;5051210;28;20052;-63
2023/01/10 05:13:49;;;;;;;0.63;0.20;;;;;;;;;;5047464;28;20064;-63
2023/01/10 05:16:19;;;;;;;0.40;0.40;;;;;;;;;;5049687;28;20439;-63
2023/01/10 05:18:47;;;;;;;0.20;0.20;;;;;;;;;;5052008;28;20495;-63
2023/01/10 05:21:15;;;;;;;0.45;0.43;;;;;;;;;;5048216;28;20053;-63
2023/01/10 05:23:44;;;;;;;0.88;0.70;;;;;;;;;;5048926;28;20436;-63
2023/01/10 05:26:13;;;;;;;0.52;0.40;;;;;;;;;;5048787;28;20045;-63
2023/01/10 05:28:41;;;;;;;0.30;0.30;;;;;;;;;;5049701;28;20048;-63
2023/01/10 05:31:12;;;;;;;0.45;0.25;;;;;;;;;;5050206;28;20124;-63
2023/01/10 05:33:44;;;;;;;0.77;0.77;;;;;;;;;;5052066;28;20057;-64
2023/01/10 05:36:12;;;;;;;1.10;0.82;;;;;;;;;;5043047;28;20535;-63
2023/01/10 05:38:41;;;;;;;0.52;0.50;;;;;;;;;;5047390;28;20441;-63
2023/01/10 05:41:09;;;;;;;0.10;0.10;;;;;;;;;;5049084;28;20045;-62
2023/01/10 05:43:37;;;;;;;0.57;0.38;;;;;;;;;;5051041;28;20048;-63
2023/01/10 05:46:06;;;;;;;0.15;0.15;;;;;;;;;;5046608;28;20477;-64
2023/01/10 05:48:34;;;;;;;0.17;0.17;;;;;;;;;;5042472;28;20084;-63
2023/01/10 05:51:04;;;;;;;0.25;0.25;;;;;;;;;;5045934;28;20088;-64
2023/01/10 05:53:32;;;;;;;0.22;0.17;;;;;;;;;;5050711;28;20064;-63
2023/01/10 05:56:02;;;;;;;2.38;0.60;;;;;;;;;;5043904;28;20049;-63
2023/01/10 05:58:30;;;;;;;0.40;0.40;;;;;;;;;;5047946;28;20500;-62
2023/01/10 06:00:58;;;;;;;0.40;0.40;;;;;;;;;;5044319;28;20049;-63
2023/01/10 06:03:27;;;;;;;0.20;0.20;;;;;;;;;;5045436;28;20482;-62
2023/01/10 06:05:56;;;;;;;0.30;0.30;;;;;;;;;;5043732;28;20532;-63
2023/01/10 06:08:25;;;;;;;0.40;0.40;;;;;;;;;;5048620;28;20067;-63
2023/01/10 06:10:54;;;;;;;1.45;0.43;;;;;;;;;;5051827;28;20049;-60
2023/01/10 06:13:22;;;;;;;0.10;0.10;;;;;;;;;;5051719;28;20486;-65
2023/01/10 06:15:51;;;;;;;0.10;0.10;;;;;;;;;;5048077;28;20051;-63
2023/01/10 06:18:19;;;;;;;0.35;0.20;;;;;;;;;;5051833;28;20045;-63
2023/01/10 06:20:47;;;;;;;0.52;0.52;;;;;;;;;;5044993;28;20053;-63
2023/01/10 06:23:16;;;;;;;0.47;0.40;;;;;;;;;;5045399;28;20056;-62
2023/01/10 06:25:45;;;;;;;0.35;0.35;;;;;;;;;;5050215;28;20493;-62
2023/01/10 06:28:14;;;;;;;0.38;0.38;;;;;;;;;;5047815;28;20137;-63
2023/01/10 06:30:43;;;;;;;0.60;0.60;;;;;;;;;;5052116;28;20061;-62
2023/01/10 06:33:12;;;;;;;0.98;0.22;;;;;;;;;;5050749;28;20490;-64
2023/01/10 06:35:40;;;;;;;0.10;0.10;;;;;;;;;;5050937;28;20049;-63
2023/01/10 06:38:08;;;;;;;0.20;0.20;;;;;;;;;;5049758;28;20430;-64
2023/01/10 06:40:37;;;;;;;0.63;0.22;;;;;;;;;;5047478;28;20077;-62
2023/01/10 06:43:06;;;;;;;0.35;0.35;;;;;;;;;;5047208;28;20510;-63
2023/01/10 06:45:35;;;;;;;0.30;0.30;;;;;;;;;;5052276;28;20079;-62
2023/01/10 06:48:03;;;;;;;0.17;0.17;;;;;;;;;;5038001;28;20557;-61
2023/01/10 06:50:31;;;;;;;0.28;0.28;;;;;;;;;;5047703;28;20056;-62
2023/01/10 06:53:00;;;;;;;0.47;0.20;;;;;;;;;;5048729;28;20043;-62
2023/01/10 06:55:29;;;;;;;0.55;0.30;;;;;;;;;;5051982;28;20053;-62
2023/01/10 06:57:58;;;;;;;0.30;0.30;;;;;;;;;;5051182;28;20094;-62
2023/01/10 07:00:28;;;;;;;0.20;0.20;;;;;;;;;;5052050;28;20051;-61
2023/01/10 07:02:58;;;;;;;1.67;0.30;;;;;;;;;;5051272;28;20502;-62
2023/01/10 07:05:27;;;;;;;0.55;0.55;;;;;;;;;;5051593;28;20525;-61
2023/01/10 07:07:57;;;;;;;0.47;0.47;;;;;;;;;;5049272;28;20076;-63
2023/01/10 07:10:25;;;;;;;0.10;0.10;;;;;;;;;;5051961;28;20416;-62
2023/01/10 07:12:55;;;;;;;0.20;0.20;;;;;;;;;;5051819;28;20147;-62
2023/01/10 07:15:23;;;;;;;0.10;0.10;;;;;;;;;;5051653;28;20410;-62
2023/01/10 07:17:53;;;;;;;0.63;0.38;;;;;;;;;;5051370;28;20053;-61
2023/01/10 07:20:21;;;;;;;0.10;0.10;;;;;;;;;;5050722;28;20483;-62
2023/01/10 07:22:53;;;;;;;0.50;0.50;;;;;;;;;;5050285;28;20049;-62
2023/01/10 07:25:22;;;;;;;0.20;0.20;;;;;;;;;;5050713;28;20131;-62
2023/01/10 07:27:50;;;;;;;0.22;0.22;;;;;;;;;;5051058;28;20084;-62
2023/01/10 07:30:18;;;;;;;0.17;0.17;;;;;;;;;;5051315;28;20064;-63
2023/01/10 07:32:47;;;;;;;0.77;0.52;;;;;;;;;;5049716;28;20059;-62
2023/01/10 07:35:16;;;;;;;0.43;0.43;;;;;;;;;;5045591;28;20044;-62
2023/01/10 07:37:45;;;;;;;0.22;0.22;;;;;;;;;;5049076;28;20052;-63
2023/01/10 07:40:13;;;;;;;0.82;0.82;;;;;;;;;;5051215;28;20049;-63
2023/01/10 07:42:42;;;;;;;0.20;0.20;;;;;;;;;;5041557;28;20497;-62
2023/01/10 07:45:10;;;;;;;0.25;0.25;;;;;;;;;;5049775;28;20047;-62
2023/01/10 07:47:39;;;;;;;0.30;0.30;;;;;;;;;;5048788;28;20060;-62
2023/01/10 07:50:08;;;;;;;0.30;0.20;;;;;;;;;;5046958;28;20132;-62
2023/01/10 07:52:39;;;;;;;0.30;0.30;;;;;;;;;;5042046;28;20529;-63
2023/01/10 07:55:07;;;;;;;0.20;0.20;;;;;;;;;;5046939;28;20060;-62
2023/01/10 07:57:36;;;;;;;0.50;0.50;;;;;;;;;;5050939;28;20485;-61
2023/01/10 08:00:04;;;;;;;0.15;0.15;;;;;;;;;;5049313;28;20049;-60
2023/01/10 08:02:33;;;;;;;0.43;0.43;;;;;;;;;;5050347;28;20469;-60
2023/01/10 08:05:01;;;;;;;0.28;0.28;;;;;;;;;;5040020;28;20568;-61
2023/01/10 08:07:29;;;;;;;0.40;0.40;;;;;;;;;;5046228;28;20072;-60
2023/01/10 08:09:59;;;;;;;0.40;0.40;;;;;;;;;;5049137;28;20053;-60
2023/01/10 08:12:28;;;;;;;0.40;0.40;;;;;;;;;;5049594;28;20132;-60
2023/01/10 08:14:56;;;;;;;0.55;0.40;;;;;;;;;;5051193;28;20071;-61
2023/01/10 08:17:25;;;;;;;1.17;0.30;;;;;;;;;;5050460;28;20049;-60
2023/01/10 08:19:53;;;;;;;0.40;0.40;;;;;;;;;;5049202;28;20057;-61
2023/01/10 08:22:22;;;;;;;0.73;0.45;;;;;;;;;;5046133;28;20064;-61
2023/01/10 08:24:50;;;;;;;1.02;0.28;;;;;;;;;;5049267;28;20068;-60
2023/01/10 08:27:20;;;;;;;4.75;0.75;;;;;;;;;;5050323;28;20136;-60
2023/01/10 08:29:48;;;;;;;0.38;0.28;;;;;;;;;;5048689;28;20087;-60
2023/01/10 08:32:17;;;;;;;0.43;0.43;;;;;;;;;;5050112;28;20044;-60
2023/01/10 08:34:45;;;;;;;0.43;0.20;;;;;;;;;;5048406;28;20060;-61
2023/01/10 08:37:14;;;;;;;0.38;0.35;;;;;;;;;;5044409;28;20079;-60
2023/01/10 08:39:42;;;;;;;0.30;0.30;;;;;;;;;;5044900;28;20052;-60
2023/01/10 08:42:11;;;;;;;0.28;0.20;;;;;;;;;;5048422;28;20041;-60
2023/01/10 08:44:40;;;;;;;1.35;0.73;;;;;;;;;;5041994;28;20096;-60
2023/01/10 08:47:09;;;;;;;2.55;0.98;;;;;;;;;;5045914;28;20481;-60
2023/01/10 08:49:37;;;;;;;1.13;0.63;;;;;;;;;;5043172;28;20732;-60
2023/01/10 08:52:06;;;;;;;3.30;0.68;;;;;;;;;;5050216;28;20139;-60
2023/01/10 08:54:35;;;;;;;0.60;0.60;;;;;;;;;;5049400;28;20111;-60
2023/01/10 08:57:04;;;;;;;12.43;1.13;;;;;;;;;;5048725;28;20127;-60
2023/01/10 08:59:32;;;;;;;0.32;0.32;;;;;;;;;;5049223;28;20582;-61
2023/01/10 09:02:03;;;;;;;0.98;0.68;;;;;;;;;;5049833;28;20084;-60
2023/01/10 09:04:32;;;;;;;0.30;0.30;;;;;;;;;;5045150;28;20077;-60
2023/01/10 09:07:01;;;;;;;0.20;0.20;;;;;;;;;;5049795;28;20118;-60
2023/01/10 09:09:30;;;;;;;1.13;0.63;;;;;;;;;;5048286;28;20060;-60
2023/01/10 09:11:58;;;;;;;0.30;0.30;;;;;;;;;;5041551;28;20148;-61
2023/01/10 09:14:27;;;;;;;0.32;0.32;;;;;;;;;;5049644;28;20045;-61
2023/01/10 09:16:56;;;;;;;0.20;0.20;;;;;;;;;;5049220;28;20206;-60
2023/01/10 09:19:26;;;;;;;0.35;0.35;;;;;;;;;;5049506;28;20068;-61
2023/01/10 09:21:55;;;;;;;0.73;0.73;;;;;;;;;;5051304;28;20048;-60
2023/01/10 09:24:24;;;;;;;0.10;0.10;;;;;;;;;;5047835;28;20387;-60
2023/01/10 09:26:53;;;;;;;0.50;0.50;;;;;;;;;;5048033;28;20064;-60
2023/01/10 09:29:22;;;;;;;0.30;0.30;;;;;;;;;;5051926;28;20045;-60
2023/01/10 09:31:50;;;;;;;0.70;0.35;;;;;;;;;;5052176;28;20052;-60
2023/01/10 09:34:19;;;;;;;0.17;0.17;;;;;;;;;;5048915;28;20301;-60
2023/01/10 09:36:49;;;;;;;0.20;0.20;;;;;;;;;;5051192;28;20057;-61
2023/01/10 09:39:18;;;;;;;0.10;0.10;;;;;;;;;;5050383;28;20136;-60
2023/01/10 09:41:52;;;;;;;0.22;0.22;;;;;;;;;;5052163;28;20506;-60
2023/01/10 09:44:23;;;;;;;0.22;0.22;;;;;;;;;;5045282;28;20104;-60
2023/01/10 09:46:54;;;;;;;0.20;0.20;;;;;;;;;;5052003;28;20060;-60
2023/01/10 09:49:27;;;;;;;0.47;0.43;;;;;;;;;;5051270;28;20045;-60
2023/01/10 09:51:58;;;;;;;0.20;0.20;;;;;;;;;;5044002;28;20040;-61
2023/01/10 09:54:29;;;;;;;1.90;0.68;;;;;;;;;;5036099;28;20053;-61
2023/01/10 09:56:59;;;;;;;1.30;0.73;;;;;;;;;;5051093;28;20053;-61
2023/01/10 09:59:37;;;;;;;0.38;0.38;;;;;;;;;;5046765;28;20049;-61
2023/01/10 10:02:07;;;;;;;0.10;0.10;;;;;;;;;;5051918;28;20129;-60
2023/01/10 10:04:37;;;;;;;0.65;0.65;;;;;;;;;;5042739;28;20041;-62
2023/01/10 10:07:09;;;;;;;0.10;0.10;;;;;;;;;;5053217;28;20048;-61
2023/01/10 10:09:37;;;;;;;0.20;0.20;;;;;;;;;;5045799;28;20057;-62
2023/01/10 10:12:15;;;;;;;1.48;0.68;;;;;;;;;;5041418;28;20050;-61
2023/01/10 10:14:48;;;;;;;0.98;0.55;;;;;;;;;;5046517;28;20124;-61
2023/01/10 10:17:26;;;;;;;1.65;1.02;;;;;;;;;;5045323;28;20052;-61
2023/01/10 10:20:01;;;;;;;2.70;0.63;;;;;;;;;;5047299;28;20040;-60
2023/01/10 10:22:29;;;;;;;;;;;;;;;;;;5044568;28;20056;-61
2023/01/10 10:25:05;;;;;;;0.13;0.13;;;;;;;;;;5049782;28;19982;-61
2023/01/10 10:27:36;;;;;;;0.28;0.20;;;;;;;;;;5048741;28;20055;-60
2023/01/10 10:30:22;;;;;;;0.28;0.28;;;;;;;;;;5050310;28;20535;-62
2023/01/10 10:32:56;;;;;;;0.43;0.43;;;;;;;;;;5046953;28;20440;-60
2023/01/10 10:35:28;;;;;;;0.30;0.30;;;;;;;;;;5051947;28;20065;-61
2023/01/10 10:37:58;;;;;;;0.20;0.20;;;;;;;;;;5046607;28;20716;-61
2023/01/10 10:40:30;;;;;;;0.50;0.50;;;;;;;;;;5048883;28;20094;-61
2023/01/10 10:43:00;;;;;;;0.28;0.22;;;;;;;;;;5048782;28;20132;-62
2023/01/10 10:45:34;;;;;;;0.65;0.20;;;;;;;;;;5048755;28;20049;-61
2023/01/10 10:48:08;;;;;;;0.10;0.10;;;;;;;;;;5046555;28;20052;-62
2023/01/10 10:50:37;;;;;;;0.30;0.30;;;;;;;;;;5046652;28;20398;-61
2023/01/10 10:53:05;;;;;;;0.25;0.25;;;;;;;;;;5050484;28;20076;-62
2023/01/10 10:55:36;;;;;;;0.20;0.10;;;;;;;;;;5041033;28;20080;-61
2023/01/10 10:58:06;;;;;;;0.25;0.25;;;;;;;;;;5050626;28;20136;-62
2023/01/10 11:00:34;;;;;;;4.45;0.57;;;;;;;;;;5049232;28;20144;-62
2023/01/10 11:03:06;;;;;;;0.25;0.25;;;;;;;;;;5050676;28;20114;-61
2023/01/10 11:05:38;;;;;;;0.38;0.38;;;;;;;;;;5050333;28;20051;-61
2023/01/10 11:08:10;;;;;;;1.23;0.43;;;;;;;;;;5033952;28;20045;-61
2023/01/10 11:10:40;;;;;;;0.30;0.30;;;;;;;;;;5048788;28;20144;-62
2023/01/10 11:13:15;;;;;;;1.30;1.20;;;;;;;;;;5050810;28;20095;-62
2023/01/10 11:15:45;;;;;;;0.20;0.20;;;;;;;;;;5040737;28;20059;-60
2023/01/10 11:18:15;;;;;;;0.30;0.30;;;;;;;;;;5050390;28;20087;-62
2023/01/10 11:20:51;;;;;;;0.15;0.15;;;;;;;;;;5051420;28;20102;-61
2023/01/10 11:23:24;;;;;;;0.40;0.40;;;;;;;;;;5049348;28;20071;-61
2023/01/10 11:25:54;;;;;;;0.13;0.13;;;;;;;;;;5048687;28;20128;-61
2023/01/10 11:28:25;;;;;;;1.05;0.68;;;;;;;;;;5046320;28;20553;-61
2023/01/10 11:30:53;;;;;;;0.40;0.30;;;;;;;;;;5049142;28;20080;-62
2023/01/10 11:33:23;;;;;;;0.52;0.20;;;;;;;;;;5050861;28;20056;-61
2023/01/10 11:35:59;;;;;;;0.20;0.20;;;;;;;;;;5050645;28;20056;-61
2023/01/10 11:38:29;;;;;;;0.75;0.43;;;;;;;;;;5044673;28;20131;-62
2023/01/10 11:41:00;;;;;;;0.10;0.10;;;;;;;;;;5047019;28;20452;-62
2023/01/10 11:43:30;;;;;;;0.55;0.30;;;;;;;;;;5041300;28;20147;-62
2023/01/10 11:46:01;;;;;;;1.85;0.80;;;;;;;;;;5048209;28;20568;-62
2023/01/10 11:48:34;;;;;;;0.20;0.20;;;;;;;;;;5044793;28;20435;-62
2023/01/10 11:51:23;;;;;;;0.20;0.20;;;;;;;;;;5047197;28;20049;-62
2023/01/10 11:53:56;;;;;;;7.18;0.25;;;;;;;;;;5049512;28;20262;-62
2023/01/10 11:56:27;;;;;;;0.40;0.25;;;;;;;;;;5044111;28;20049;-62
2023/01/10 11:58:56;;;;;;;0.10;0.10;;;;;;;;;;5043265;28;20056;-62
2023/01/10 12:01:33;;;;;;;2.58;0.90;;;;;;;;;;5048983;28;20044;-62
2023/01/10 12:04:02;;;;;;;0.10;0.10;;;;;;;;;;5040151;28;20041;-61
2023/01/10 12:06:30;;;;;;;0.10;0.10;;;;;;;;;;5048538;28;20144;-62
2023/01/10 12:08:59;;;;;;;8.30;0.57;;;;;;;;;;5048919;28;20574;-62
2023/01/10 12:11:30;;;;;;;0.25;0.25;;;;;;;;;;5049098;28;20482;-62
2023/01/10 12:13:59;;;;;;;0.10;0.10;;;;;;;;;;5050010;28;20065;-61
2023/01/10 12:16:28;;;;;;;1.23;0.50;;;;;;;;;;5049626;28;20048;-60
2023/01/10 12:18:59;;;;;;;0.22;0.22;;;;;;;;;;5047623;28;20148;-61
2023/01/10 12:21:31;;;;;;;0.20;0.20;;;;;;;;;;5049668;28;20040;-60
2023/01/10 12:24:01;;;;;;;0.82;0.68;;;;;;;;;;5048575;28;20056;-61
2023/01/10 12:26:32;;;;;;;1.33;0.55;;;;;;;;;;5034379;28;20141;-61
2023/01/10 12:29:03;;;;;;;0.15;0.15;;;;;;;;;;5043789;28;20056;-60
2023/01/10 12:31:33;;;;;;;0.22;0.22;;;;;;;;;;5043376;28;20545;-60
2023/01/10 12:34:04;;;;;;;0.10;0.10;;;;;;;;;;5049236;28;20144;-61
2023/01/10 12:36:36;;;;;;;0.73;0.52;;;;;;;;;;5050481;28;20056;-61
2023/01/10 12:39:12;;;;;;;0.13;0.13;;;;;;;;;;5043610;28;20462;-61
2023/01/10 12:44:36;;;;;;;3.17;0.68;;;;;;;;;;5048074;28;20055;-61
2023/01/10 12:47:08;;;;;;;1.63;0.60;;;;;;;;;;5043907;28;20045;-61
2023/01/10 12:49:44;;;;;;;1.45;0.45;;;;;;;;;;5048020;28;20072;-58
2023/01/10 12:52:15;;;;;;;0.63;0.57;;;;;;;;;;5042155;28;20073;-62
2023/01/10 12:54:46;;;;;;;0.32;0.30;;;;;;;;;;5038338;28;20064;-61
2023/01/10 12:57:27;;;;;;;0.30;0.30;;;;;;;;;;5039810;28;20041;-61
2023/01/10 12:59:57;;;;;;;0.30;0.30;;;;;;;;;;5043421;28;20051;-60
2023/01/10 13:02:27;;;;;;;1.33;0.30;;;;;;;;;;5037872;28;20509;-61
2023/01/10 13:04:57;;;;;;;0.00;0.00;;;;;;;;;;5046804;28;20057;-61
2023/01/10 13:07:27;;;;;;;1.95;0.88;;;;;;;;;;5043342;28;20084;-61
2023/01/10 13:09:56;;;;;;;0.77;0.63;;;;;;;;;;5043830;28;20134;-61
2023/01/10 13:12:33;;;;;;;0.30;0.20;;;;;;;;;;5035684;28;20137;-61
2023/01/10 13:15:03;;;;;;;0.10;0.10;;;;;;;;;;5041228;28;20041;-61
2023/01/10 13:17:37;;;;;;;0.45;0.15;;;;;;;;;;5049454;28;20531;-61
2023/01/10 13:20:30;;;;;;;1.20;0.30;;;;;;;;;;5045806;28;20046;-61
2023/01/10 13:22:59;;;;;;;0.10;0.10;;;;;;;;;;5030874;28;20056;-62
2023/01/10 13:25:29;;;;;;;0.10;0.10;;;;;;;;;;5049836;28;20061;-61
2023/01/10 13:27:59;;;;;;;0.10;0.10;;;;;;;;;;5047959;28;20156;-61
2023/01/10 13:30:29;;;;;;;2.95;0.45;;;;;;;;;;5043600;28;20083;-61
2023/01/10 13:33:02;;;;;;;0.70;0.55;;;;;;;;;;5049165;28;20060;-61
2023/01/10 13:35:37;;;;;;;6.15;0.70;;;;;;;;;;5049422;28;20049;-62
2023/01/10 13:38:06;;;;;;;0.93;0.22;;;;;;;;;;5046419;28;20048;-61
2023/01/10 13:40:36;;;;;;;0.10;0.10;;;;;;;;;;5040961;28;20148;-61
2023/01/10 13:43:18;;;;;;;0.80;0.20;;;;;;;;;;5037943;28;20049;-60
2023/01/10 13:45:48;;;;;;;0.30;0.28;;;;;;;;;;5048263;28;20390;-61
2023/01/10 13:48:27;;;;;;;0.10;0.10;;;;;;;;;;5048451;28;20049;-61
2023/01/10 13:51:06;;;;;;;0.52;0.17;;;;;;;;;;5048345;28;20053;-61
2023/01/10 13:54:04;;;;;;;0.30;0.30;;;;;;;;;;5049006;28;20112;-61
2023/01/10 13:56:37;;;;;;;2.40;0.52;;;;;;;;;;5027481;28;20294;-62
2023/01/10 14:04:48;;;;;;;0.20;0.20;;;;;;;;;;5024656;28;20116;-61
2023/01/10 14:07:21;;;;;;;1.45;0.60;;;;;;;;;;5020609;28;20057;-64
2023/01/10 14:09:51;;;;;;;0.30;0.30;;;;;;;;;;5027847;28;20057;-62
2023/01/10 14:12:22;;;;;;;2.35;0.60;;;;;;;;;;5030385;28;20098;-61
2023/01/10 14:14:53;;;;;;;0.20;0.20;;;;;;;;;;5022438;28;20054;-61
2023/01/10 14:17:24;;;;;;;0.43;0.28;;;;;;;;;;5029881;28;20084;-61
2023/01/10 14:20:08;;;;;;;0.10;0.10;;;;;;;;;;5024163;28;20132;-61
2023/01/10 14:22:37;;;;;;;1.15;0.22;;;;;;;;;;5027312;28;20051;-61
2023/01/10 14:25:06;;;;;;;0.10;0.10;;;;;;;;;;5026973;28;20056;-61
2023/01/10 14:27:38;;;;;;;0.32;0.32;;;;;;;;;;5015709;28;20107;-61
2023/01/10 14:30:08;;;;;;;0.15;0.15;;;;;;;;;;5002770;28;20576;-60
2023/01/10 14:32:40;;;;;;;0.40;0.28;;;;;;;;;;5028516;28;20053;-60
2023/01/10 14:35:09;;;;;;;0.20;0.20;;;;;;;;;;5022392;28;20109;-62
2023/01/10 14:37:41;;;;;;;0.70;0.65;;;;;;;;;;5014965;28;20053;-60
2023/01/10 14:40:16;;;;;;;0.55;0.52;;;;;;;;;;5025649;28;20583;-61
2023/01/10 14:42:44;;;;;;;0.47;0.30;;;;;;;;;;5024205;28;20050;-61
2023/01/10 14:45:18;;;;;;;2.90;0.35;;;;;;;;;;5028256;28;20045;-61
2023/01/10 14:47:48;;;;;;;0.30;0.30;;;;;;;;;;5033498;28;20083;-62
2023/01/10 14:50:23;;;;;;;0.20;0.20;;;;;;;;;;5025451;28;20084;-60
2023/01/10 14:52:52;;;;;;;2.05;0.28;;;;;;;;;;5025377;28;20381;-62
2023/01/10 14:55:21;;;;;;;0.20;0.20;;;;;;;;;;5036363;28;20489;-61
2023/01/10 14:57:56;;;;;;;0.30;0.20;;;;;;;;;;5040782;28;20064;-61
2023/01/10 15:00:26;;;;;;;0.22;0.22;;;;;;;;;;5044365;28;20052;-61
2023/01/10 15:03:00;;;;;;;2.92;0.75;;;;;;;;;;5046625;28;20057;-61
2023/01/10 15:05:29;;;;;;;0.10;0.10;;;;;;;;;;5038994;28;20106;-61
2023/01/10 15:08:12;;;;;;;0.35;0.35;;;;;;;;;;5045773;28;20511;-61
2023/01/10 15:10:42;;;;;;;4.65;0.30;;;;;;;;;;5043291;28;20055;-62
2023/01/10 15:13:14;;;;;;;1.77;0.32;;;;;;;;;;5046607;28;20057;-61
2023/01/10 15:15:43;;;;;;;0.10;0.10;;;;;;;;;;5035465;28;20107;-62
2023/01/10 15:18:29;;;;;;;0.30;0.30;;;;;;;;;;5044679;28;20405;-60
2023/01/10 15:20:58;;;;;;;5.85;0.30;;;;;;;;;;5044382;28;20076;-61
2023/01/10 15:23:33;;;;;;;0.45;0.40;;;;;;;;;;5035998;28;20056;-61